sensor_id;sensor_type;location;lat;lon;timestamp;temperature;humidity
9118;DHT22;4594;50.994;7.126;2023-07-22T00:01:02;15.00;31.70
9118;DHT22;4594;50.994;7.126;2023-07-22T00:03:28;15.00;31.70
9118;DHT22;4594;50.994;7.126;2023-07-22T00:06:06;15.30;32.00
9118;DHT22;4594;50.994;7.126;2023-07-22T00:08:37;15.00;32.10
9118;DHT22;4594;50.994;7.126;2023-07-22T00:11:04;14.90;32.00
9118;DHT22;4594;50.994;7.126;2023-07-22T00:13:31;14.80;31.80
9118;DHT22;4594;50.994;7.126;2023-07-22T00:15:59;14.80;31.90
9118;DHT22;4594;50.994;7.126;2023-07-22T00:18:27;14.80;31.90
9118;DHT22;4594;50.994;7.126;2023-07-22T00:20:54;14.70;31.90
9118;DHT22;4594;50.994;7.126;2023-07-22T00:23:20;14.70;31.90
9118;DHT22;4594;50.994;7.126;2023-07-22T00:25:47;14.70;32.00
9118;DHT22;4594;50.994;7.126;2023-07-22T00:28:13;14.70;32.00
9118;DHT22;4594;50.994;7.126;2023-07-22T00:30:39;14.60;32.00
9118;DHT22;4594;50.994;7.126;2023-07-22T00:33:04;14.60;32.00
9118;DHT22;4594;50.994;7.126;2023-07-22T00:35:31;14.60;32.00
9118;DHT22;4594;50.994;7.126;2023-07-22T00:37:57;14.50;32.00
9118;DHT22;4594;50.994;7.126;2023-07-22T00:40:24;14.50;32.00
9118;DHT22;4594;50.994;7.126;2023-07-22T00:42:50;14.50;32.00
9118;DHT22;4594;50.994;7.126;2023-07-22T00:45:16;14.40;32.00
9118;DHT22;4594;50.994;7.126;2023-07-22T00:47:42;14.40;32.20
9118;DHT22;4594;50.994;7.126;2023-07-22T00:50:09;14.40;32.30
9118;DHT22;4594;50.994;7.126;2023-07-22T00:52:36;14.30;32.20
9118;DHT22;4594;50.994;7.126;2023-07-22T00:55:06;14.30;32.20
9118;DHT22;4594;50.994;7.126;2023-07-22T00:57:32;14.30;32.30
9118;DHT22;4594;50.994;7.126;2023-07-22T00:59:59;14.30;32.30
9118;DHT22;4594;50.994;7.126;2023-07-22T01:02:25;14.30;32.40
9118;DHT22;4594;50.994;7.126;2023-07-22T01:04:51;14.30;32.40
9118;DHT22;4594;50.994;7.126;2023-07-22T01:07:19;14.30;32.50
9118;DHT22;4594;50.994;7.126;2023-07-22T01:09:45;14.40;32.60
9118;DHT22;4594;50.994;7.126;2023-07-22T01:12:11;14.40;32.60
9118;DHT22;4594;50.994;7.126;2023-07-22T01:14:39;14.50;32.70
9118;DHT22;4594;50.994;7.126;2023-07-22T01:17:08;14.50;32.70
9118;DHT22;4594;50.994;7.126;2023-07-22T01:19:34;14.40;32.60
9118;DHT22;4594;50.994;7.126;2023-07-22T01:22:04;14.40;32.60
9118;DHT22;4594;50.994;7.126;2023-07-22T01:24:34;14.40;32.70
9118;DHT22;4594;50.994;7.126;2023-07-22T01:27:01;14.40;32.60
9118;DHT22;4594;50.994;7.126;2023-07-22T01:29:28;14.40;32.60
9118;DHT22;4594;50.994;7.126;2023-07-22T01:31:55;14.40;32.70
9118;DHT22;4594;50.994;7.126;2023-07-22T01:34:21;14.50;32.80
9118;DHT22;4594;50.994;7.126;2023-07-22T01:36:49;14.40;32.80
9118;DHT22;4594;50.994;7.126;2023-07-22T01:39:15;14.50;33.00
9118;DHT22;4594;50.994;7.126;2023-07-22T01:41:41;14.50;33.00
9118;DHT22;4594;50.994;7.126;2023-07-22T01:44:07;14.60;33.10
9118;DHT22;4594;50.994;7.126;2023-07-22T01:46:33;14.50;33.10
9118;DHT22;4594;50.994;7.126;2023-07-22T01:49:00;14.60;33.10
9118;DHT22;4594;50.994;7.126;2023-07-22T01:51:27;14.50;33.10
9118;DHT22;4594;50.994;7.126;2023-07-22T01:53:53;14.60;33.10
9118;DHT22;4594;50.994;7.126;2023-07-22T01:56:19;14.60;33.10
9118;DHT22;4594;50.994;7.126;2023-07-22T01:58:47;14.70;33.20
9118;DHT22;4594;50.994;7.126;2023-07-22T02:01:13;14.70;33.20
9118;DHT22;4594;50.994;7.126;2023-07-22T02:03:41;14.70;33.30
9118;DHT22;4594;50.994;7.126;2023-07-22T02:06:07;14.90;33.50
9118;DHT22;4594;50.994;7.126;2023-07-22T02:08:33;14.70;33.30
9118;DHT22;4594;50.994;7.126;2023-07-22T02:11:02;14.90;33.50
9118;DHT22;4594;50.994;7.126;2023-07-22T02:13:34;14.80;33.60
9118;DHT22;4594;50.994;7.126;2023-07-22T02:16:01;14.90;33.60
9118;DHT22;4594;50.994;7.126;2023-07-22T02:18:27;14.90;33.50
9118;DHT22;4594;50.994;7.126;2023-07-22T02:20:54;14.90;33.50
9118;DHT22;4594;50.994;7.126;2023-07-22T02:23:21;15.00;33.60
9118;DHT22;4594;50.994;7.126;2023-07-22T02:25:51;15.00;33.60
9118;DHT22;4594;50.994;7.126;2023-07-22T02:28:18;15.00;33.70
9118;DHT22;4594;50.994;7.126;2023-07-22T02:30:47;15.10;33.70
9118;DHT22;4594;50.994;7.126;2023-07-22T02:33:13;15.30;33.90
9118;DHT22;4594;50.994;7.126;2023-07-22T02:35:41;15.20;33.80
9118;DHT22;4594;50.994;7.126;2023-07-22T02:38:07;15.30;33.90
9118;DHT22;4594;50.994;7.126;2023-07-22T02:40:37;15.30;33.90
9118;DHT22;4594;50.994;7.126;2023-07-22T02:43:03;15.60;34.20
9118;DHT22;4594;50.994;7.126;2023-07-22T02:45:29;15.50;34.00
9118;DHT22;4594;50.994;7.126;2023-07-22T02:47:55;15.50;34.00
9118;DHT22;4594;50.994;7.126;2023-07-22T02:50:21;15.50;34.00
9118;DHT22;4594;50.994;7.126;2023-07-22T02:52:47;15.50;33.90
9118;DHT22;4594;50.994;7.126;2023-07-22T02:55:15;15.80;34.10
9118;DHT22;4594;50.994;7.126;2023-07-22T02:57:44;15.70;34.00
9118;DHT22;4594;50.994;7.126;2023-07-22T03:00:15;15.70;34.00
9118;DHT22;4594;50.994;7.126;2023-07-22T03:02:56;15.70;34.00
9118;DHT22;4594;50.994;7.126;2023-07-22T03:05:31;15.70;34.00
9118;DHT22;4594;50.994;7.126;2023-07-22T03:07:58;15.70;34.00
9118;DHT22;4594;50.994;7.126;2023-07-22T03:10:24;15.70;34.00
9118;DHT22;4594;50.994;7.126;2023-07-22T03:12:51;15.80;34.10
9118;DHT22;4594;50.994;7.126;2023-07-22T03:15:21;15.80;34.10
9118;DHT22;4594;50.994;7.126;2023-07-22T03:17:48;15.90;34.20
9118;DHT22;4594;50.994;7.126;2023-07-22T03:20:15;15.80;34.10
9118;DHT22;4594;50.994;7.126;2023-07-22T03:22:42;15.90;34.20
9118;DHT22;4594;50.994;7.126;2023-07-22T03:25:10;15.90;34.20
9118;DHT22;4594;50.994;7.126;2023-07-22T03:27:37;16.00;34.30
9118;DHT22;4594;50.994;7.126;2023-07-22T03:30:05;16.10;34.30
9118;DHT22;4594;50.994;7.126;2023-07-22T03:32:42;16.00;34.20
9118;DHT22;4594;50.994;7.126;2023-07-22T03:35:09;16.00;34.10
9118;DHT22;4594;50.994;7.126;2023-07-22T03:37:39;16.10;34.20
9118;DHT22;4594;50.994;7.126;2023-07-22T03:40:06;16.10;34.20
9118;DHT22;4594;50.994;7.126;2023-07-22T03:42:54;16.10;34.20
9118;DHT22;4594;50.994;7.126;2023-07-22T03:45:21;16.20;34.20
9118;DHT22;4594;50.994;7.126;2023-07-22T03:47:52;16.20;34.20
9118;DHT22;4594;50.994;7.126;2023-07-22T03:50:19;16.20;34.20
9118;DHT22;4594;50.994;7.126;2023-07-22T03:52:45;16.20;34.20
9118;DHT22;4594;50.994;7.126;2023-07-22T03:55:11;16.30;34.20
9118;DHT22;4594;50.994;7.126;2023-07-22T03:57:37;16.40;34.30
9118;DHT22;4594;50.994;7.126;2023-07-22T04:00:03;16.30;34.20
9118;DHT22;4594;50.994;7.126;2023-07-22T04:02:30;16.30;34.20
9118;DHT22;4594;50.994;7.126;2023-07-22T04:04:56;16.40;34.30
9118;DHT22;4594;50.994;7.126;2023-07-22T04:07:22;16.80;34.60
9118;DHT22;4594;50.994;7.126;2023-07-22T04:09:48;16.40;34.30
9118;DHT22;4594;50.994;7.126;2023-07-22T04:12:14;16.40;34.30
9118;DHT22;4594;50.994;7.126;2023-07-22T04:14:40;16.50;34.40
9118;DHT22;4594;50.994;7.126;2023-07-22T04:17:06;16.60;34.40
9118;DHT22;4594;50.994;7.126;2023-07-22T04:19:32;16.60;34.40
9118;DHT22;4594;50.994;7.126;2023-07-22T04:21:58;16.60;34.40
9118;DHT22;4594;50.994;7.126;2023-07-22T04:24:24;16.60;34.30
9118;DHT22;4594;50.994;7.126;2023-07-22T04:26:51;16.60;34.30
9118;DHT22;4594;50.994;7.126;2023-07-22T04:29:16;16.70;34.40
9118;DHT22;4594;50.994;7.126;2023-07-22T04:31:42;16.70;34.40
9118;DHT22;4594;50.994;7.126;2023-07-22T04:34:08;16.70;34.30
9118;DHT22;4594;50.994;7.126;2023-07-22T04:36:34;16.80;34.40
9118;DHT22;4594;50.994;7.126;2023-07-22T04:39:02;16.80;34.40
9118;DHT22;4594;50.994;7.126;2023-07-22T04:41:30;16.90;34.40
9118;DHT22;4594;50.994;7.126;2023-07-22T04:43:57;16.90;34.50
9118;DHT22;4594;50.994;7.126;2023-07-22T04:46:24;16.90;34.50
9118;DHT22;4594;50.994;7.126;2023-07-22T04:48:54;17.00;34.50
9118;DHT22;4594;50.994;7.126;2023-07-22T04:51:21;17.00;34.50
9118;DHT22;4594;50.994;7.126;2023-07-22T04:53:47;17.00;34.50
9118;DHT22;4594;50.994;7.126;2023-07-22T04:56:12;17.00;34.50
9118;DHT22;4594;50.994;7.126;2023-07-22T04:58:38;17.10;34.50
9118;DHT22;4594;50.994;7.126;2023-07-22T05:01:04;17.10;34.50
9118;DHT22;4594;50.994;7.126;2023-07-22T05:03:30;17.20;34.60
9118;DHT22;4594;50.994;7.126;2023-07-22T05:05:56;17.20;34.50
9118;DHT22;4594;50.994;7.126;2023-07-22T05:08:23;17.30;34.50
9118;DHT22;4594;50.994;7.126;2023-07-22T05:10:49;17.50;34.70
9118;DHT22;4594;50.994;7.126;2023-07-22T05:13:15;17.30;34.50
9118;DHT22;4594;50.994;7.126;2023-07-22T05:15:41;17.30;34.70
9118;DHT22;4594;50.994;7.126;2023-07-22T05:18:07;17.40;34.50
9118;DHT22;4594;50.994;7.126;2023-07-22T05:20:33;17.40;34.50
9118;DHT22;4594;50.994;7.126;2023-07-22T05:22:59;17.50;34.70
9118;DHT22;4594;50.994;7.126;2023-07-22T05:25:24;17.50;34.70
9118;DHT22;4594;50.994;7.126;2023-07-22T05:27:50;17.70;34.90
9118;DHT22;4594;50.994;7.126;2023-07-22T05:30:16;17.90;35.20
9118;DHT22;4594;50.994;7.126;2023-07-22T05:32:41;18.10;35.30
9118;DHT22;4594;50.994;7.126;2023-07-22T05:35:07;18.30;35.30
9118;DHT22;4594;50.994;7.126;2023-07-22T05:37:34;18.50;35.30
9118;DHT22;4594;50.994;7.126;2023-07-22T05:40:00;18.80;35.50
9118;DHT22;4594;50.994;7.126;2023-07-22T05:42:27;19.00;35.40
9118;DHT22;4594;50.994;7.126;2023-07-22T05:44:54;19.30;35.40
9118;DHT22;4594;50.994;7.126;2023-07-22T05:47:23;19.60;35.40
9118;DHT22;4594;50.994;7.126;2023-07-22T05:49:49;19.80;35.50
9118;DHT22;4594;50.994;7.126;2023-07-22T05:52:15;20.00;35.40
9118;DHT22;4594;50.994;7.126;2023-07-22T05:54:40;20.30;35.50
9118;DHT22;4594;50.994;7.126;2023-07-22T05:57:06;20.50;35.40
9118;DHT22;4594;50.994;7.126;2023-07-22T05:59:32;20.70;35.50
9118;DHT22;4594;50.994;7.126;2023-07-22T06:01:57;20.90;35.50
9118;DHT22;4594;50.994;7.126;2023-07-22T06:04:23;21.20;35.70
9118;DHT22;4594;50.994;7.126;2023-07-22T06:06:49;21.50;35.70
9118;DHT22;4594;50.994;7.126;2023-07-22T06:09:15;21.80;35.80
9118;DHT22;4594;50.994;7.126;2023-07-22T06:11:40;22.10;35.80
9118;DHT22;4594;50.994;7.126;2023-07-22T06:14:06;22.40;35.90
9118;DHT22;4594;50.994;7.126;2023-07-22T06:16:33;22.70;35.80
9118;DHT22;4594;50.994;7.126;2023-07-22T06:18:59;23.00;35.60
9118;DHT22;4594;50.994;7.126;2023-07-22T06:21:24;23.20;35.40
9118;DHT22;4594;50.994;7.126;2023-07-22T06:23:50;23.40;35.30
9118;DHT22;4594;50.994;7.126;2023-07-22T06:26:16;23.50;35.50
9118;DHT22;4594;50.994;7.126;2023-07-22T06:28:42;23.60;35.00
9118;DHT22;4594;50.994;7.126;2023-07-22T06:31:07;23.70;35.00
9118;DHT22;4594;50.994;7.126;2023-07-22T06:33:33;23.90;35.10
9118;DHT22;4594;50.994;7.126;2023-07-22T06:35:59;24.00;35.20
9118;DHT22;4594;50.994;7.126;2023-07-22T06:38:24;24.20;35.20
9118;DHT22;4594;50.994;7.126;2023-07-22T06:40:52;24.40;35.20
9118;DHT22;4594;50.994;7.126;2023-07-22T06:43:19;24.50;34.90
9118;DHT22;4594;50.994;7.126;2023-07-22T06:45:44;24.70;34.90
9118;DHT22;4594;50.994;7.126;2023-07-22T06:48:10;24.80;35.00
9118;DHT22;4594;50.994;7.126;2023-07-22T06:50:36;25.00;35.10
9118;DHT22;4594;50.994;7.126;2023-07-22T06:53:01;25.20;35.20
9118;DHT22;4594;50.994;7.126;2023-07-22T06:55:27;25.40;35.10
9118;DHT22;4594;50.994;7.126;2023-07-22T06:57:55;25.70;35.10
9118;DHT22;4594;50.994;7.126;2023-07-22T07:00:21;25.80;34.80
9118;DHT22;4594;50.994;7.126;2023-07-22T07:02:47;26.00;34.80
9118;DHT22;4594;50.994;7.126;2023-07-22T07:05:13;26.20;34.70
9118;DHT22;4594;50.994;7.126;2023-07-22T07:07:38;26.30;34.60
9118;DHT22;4594;50.994;7.126;2023-07-22T07:10:06;26.40;34.50
9118;DHT22;4594;50.994;7.126;2023-07-22T07:12:32;26.50;34.40
9118;DHT22;4594;50.994;7.126;2023-07-22T07:14:58;26.50;34.30
9118;DHT22;4594;50.994;7.126;2023-07-22T07:17:23;26.60;34.10
9118;DHT22;4594;50.994;7.126;2023-07-22T07:19:49;26.60;34.00
9118;DHT22;4594;50.994;7.126;2023-07-22T07:22:15;26.60;33.90
9118;DHT22;4594;50.994;7.126;2023-07-22T07:24:41;26.50;33.80
9118;DHT22;4594;50.994;7.126;2023-07-22T07:27:07;26.50;33.60
9118;DHT22;4594;50.994;7.126;2023-07-22T07:29:33;26.40;33.50
9118;DHT22;4594;50.994;7.126;2023-07-22T07:31:58;26.30;33.40
9118;DHT22;4594;50.994;7.126;2023-07-22T07:34:24;26.20;33.30
9118;DHT22;4594;50.994;7.126;2023-07-22T07:36:50;26.10;33.30
9118;DHT22;4594;50.994;7.126;2023-07-22T07:39:15;26.00;33.30
9118;DHT22;4594;50.994;7.126;2023-07-22T07:41:41;25.90;33.20
9118;DHT22;4594;50.994;7.126;2023-07-22T07:44:07;25.80;33.20
9118;DHT22;4594;50.994;7.126;2023-07-22T07:46:32;25.80;33.30
9118;DHT22;4594;50.994;7.126;2023-07-22T07:48:59;25.80;33.40
9118;DHT22;4594;50.994;7.126;2023-07-22T07:51:27;25.80;33.30
9118;DHT22;4594;50.994;7.126;2023-07-22T07:53:54;25.80;33.20
9118;DHT22;4594;50.994;7.126;2023-07-22T07:56:21;25.70;33.20
9118;DHT22;4594;50.994;7.126;2023-07-22T07:58:49;25.70;33.30
9118;DHT22;4594;50.994;7.126;2023-07-22T08:01:16;25.80;33.40
9118;DHT22;4594;50.994;7.126;2023-07-22T08:03:43;25.90;33.50
9118;DHT22;4594;50.994;7.126;2023-07-22T08:06:10;26.00;33.50
9118;DHT22;4594;50.994;7.126;2023-07-22T08:08:36;26.10;33.50
9118;DHT22;4594;50.994;7.126;2023-07-22T08:11:05;26.20;33.50
9118;DHT22;4594;50.994;7.126;2023-07-22T08:13:36;26.30;33.40
9118;DHT22;4594;50.994;7.126;2023-07-22T08:16:03;26.40;33.50
9118;DHT22;4594;50.994;7.126;2023-07-22T08:18:30;26.60;33.60
9118;DHT22;4594;50.994;7.126;2023-07-22T08:20:57;26.80;33.70
9118;DHT22;4594;50.994;7.126;2023-07-22T08:23:23;27.10;34.00
9118;DHT22;4594;50.994;7.126;2023-07-22T08:25:49;27.40;34.10
9118;DHT22;4594;50.994;7.126;2023-07-22T08:28:16;27.80;34.20
9118;DHT22;4594;50.994;7.126;2023-07-22T08:30:42;28.20;34.20
9118;DHT22;4594;50.994;7.126;2023-07-22T08:33:11;28.60;34.20
9118;DHT22;4594;50.994;7.126;2023-07-22T08:35:38;29.00;34.20
9118;DHT22;4594;50.994;7.126;2023-07-22T08:38:04;29.40;34.00
9118;DHT22;4594;50.994;7.126;2023-07-22T08:40:38;29.80;33.90
9118;DHT22;4594;50.994;7.126;2023-07-22T08:43:10;30.20;33.50
9118;DHT22;4594;50.994;7.126;2023-07-22T08:45:38;30.50;33.70
9118;DHT22;4594;50.994;7.126;2023-07-22T08:48:09;31.00;33.70
9118;DHT22;4594;50.994;7.126;2023-07-22T08:50:46;31.40;33.60
9118;DHT22;4594;50.994;7.126;2023-07-22T08:53:13;31.90;32.70
9118;DHT22;4594;50.994;7.126;2023-07-22T08:55:39;32.10;32.80
9118;DHT22;4594;50.994;7.126;2023-07-22T08:58:08;32.30;32.50
9118;DHT22;4594;50.994;7.126;2023-07-22T09:00:36;32.50;32.20
9118;DHT22;4594;50.994;7.126;2023-07-22T09:03:05;32.60;32.10
9118;DHT22;4594;50.994;7.126;2023-07-22T09:05:33;32.60;32.00
9118;DHT22;4594;50.994;7.126;2023-07-22T09:08:03;32.70;31.80
9118;DHT22;4594;50.994;7.126;2023-07-22T09:10:30;32.60;31.30
9118;DHT22;4594;50.994;7.126;2023-07-22T09:12:58;32.60;31.30
9118;DHT22;4594;50.994;7.126;2023-07-22T09:15:25;32.50;31.10
9118;DHT22;4594;50.994;7.126;2023-07-22T09:17:52;32.40;31.00
9118;DHT22;4594;50.994;7.126;2023-07-22T09:20:19;32.30;31.00
9118;DHT22;4594;50.994;7.126;2023-07-22T09:22:47;32.40;31.10
9118;DHT22;4594;50.994;7.126;2023-07-22T09:25:17;32.40;31.10
9118;DHT22;4594;50.994;7.126;2023-07-22T09:27:49;32.60;31.10
9118;DHT22;4594;50.994;7.126;2023-07-22T09:32:57;32.70;30.40
9118;DHT22;4594;50.994;7.126;2023-07-22T09:35:32;32.70;30.60
9118;DHT22;4594;50.994;7.126;2023-07-22T09:38:09;32.70;30.30
9118;DHT22;4594;50.994;7.126;2023-07-22T09:40:35;32.60;30.30
9118;DHT22;4594;50.994;7.126;2023-07-22T09:43:02;32.50;30.20
9118;DHT22;4594;50.994;7.126;2023-07-22T09:45:30;32.40;30.10
9118;DHT22;4594;50.994;7.126;2023-07-22T09:47:58;32.30;30.10
9118;DHT22;4594;50.994;7.126;2023-07-22T09:50:25;32.20;30.00
9118;DHT22;4594;50.994;7.126;2023-07-22T09:52:53;32.20;30.10
9118;DHT22;4594;50.994;7.126;2023-07-22T09:55:25;32.20;30.20
9118;DHT22;4594;50.994;7.126;2023-07-22T09:58:01;32.30;30.00
9118;DHT22;4594;50.994;7.126;2023-07-22T10:00:30;32.40;30.20
9118;DHT22;4594;50.994;7.126;2023-07-22T10:02:59;32.50;30.00
9118;DHT22;4594;50.994;7.126;2023-07-22T10:05:26;32.50;29.90
9118;DHT22;4594;50.994;7.126;2023-07-22T10:07:55;32.50;29.80
9118;DHT22;4594;50.994;7.126;2023-07-22T10:10:30;32.50;29.80
9118;DHT22;4594;50.994;7.126;2023-07-22T10:13:04;32.40;29.70
9118;DHT22;4594;50.994;7.126;2023-07-22T10:15:32;32.40;29.80
9118;DHT22;4594;50.994;7.126;2023-07-22T10:18:00;32.40;29.80
9118;DHT22;4594;50.994;7.126;2023-07-22T10:20:28;32.40;29.90
9118;DHT22;4594;50.994;7.126;2023-07-22T10:22:55;32.50;29.90
9118;DHT22;4594;50.994;7.126;2023-07-22T10:25:22;32.70;29.90
9118;DHT22;4594;50.994;7.126;2023-07-22T10:27:49;32.80;29.80
9118;DHT22;4594;50.994;7.126;2023-07-22T10:30:18;33.00;29.80
9118;DHT22;4594;50.994;7.126;2023-07-22T10:32:49;33.10;29.80
9118;DHT22;4594;50.994;7.126;2023-07-22T10:37:56;33.20;29.60
9118;DHT22;4594;50.994;7.126;2023-07-22T10:40:32;33.30;29.60
9118;DHT22;4594;50.994;7.126;2023-07-22T10:43:10;33.40;29.60
9118;DHT22;4594;50.994;7.126;2023-07-22T10:45:41;33.50;29.70
9118;DHT22;4594;50.994;7.126;2023-07-22T10:48:12;33.60;29.30
9118;DHT22;4594;50.994;7.126;2023-07-22T11:06:52;35.20;29.30
9118;DHT22;4594;50.994;7.126;2023-07-22T11:11:59;36.10;29.30
9118;DHT22;4594;50.994;7.126;2023-07-22T11:14:33;36.40;29.60
9118;DHT22;4594;50.994;7.126;2023-07-22T11:17:02;36.90;29.60
9118;DHT22;4594;50.994;7.126;2023-07-22T11:19:33;37.20;29.40
9118;DHT22;4594;50.994;7.126;2023-07-22T11:21:59;37.60;29.30
9118;DHT22;4594;50.994;7.126;2023-07-22T11:24:25;37.70;29.00
9118;DHT22;4594;50.994;7.126;2023-07-22T11:26:52;37.80;28.70
9118;DHT22;4594;50.994;7.126;2023-07-22T11:29:19;37.90;28.70
9118;DHT22;4594;50.994;7.126;2023-07-22T11:31:46;37.90;28.60
9118;DHT22;4594;50.994;7.126;2023-07-22T11:34:15;37.80;28.50
9118;DHT22;4594;50.994;7.126;2023-07-22T11:36:43;37.70;28.40
9118;DHT22;4594;50.994;7.126;2023-07-22T11:39:12;37.60;28.40
9118;DHT22;4594;50.994;7.126;2023-07-22T11:41:40;37.60;28.20
9118;DHT22;4594;50.994;7.126;2023-07-22T11:44:11;37.50;28.10
9118;DHT22;4594;50.994;7.126;2023-07-22T11:52:05;36.90;27.60
9118;DHT22;4594;50.994;7.126;2023-07-22T11:54:33;36.80;27.50
9118;DHT22;4594;50.994;7.126;2023-07-22T11:57:17;36.50;27.60
9118;DHT22;4594;50.994;7.126;2023-07-22T11:59:46;36.30;27.30
9118;DHT22;4594;50.994;7.126;2023-07-22T12:02:17;36.00;27.40
9118;DHT22;4594;50.994;7.126;2023-07-22T12:07:29;35.60;27.20
9118;DHT22;4594;50.994;7.126;2023-07-22T12:09:57;35.30;27.20
9118;DHT22;4594;50.994;7.126;2023-07-22T12:12:37;35.20;27.20
9118;DHT22;4594;50.994;7.126;2023-07-22T12:15:11;35.00;26.90
9118;DHT22;4594;50.994;7.126;2023-07-22T12:17:56;34.70;26.90
9118;DHT22;4594;50.994;7.126;2023-07-22T12:20:29;34.40;26.90
9118;DHT22;4594;50.994;7.126;2023-07-22T12:22:56;34.20;26.90
9118;DHT22;4594;50.994;7.126;2023-07-22T12:25:23;33.90;26.90
9118;DHT22;4594;50.994;7.126;2023-07-22T12:27:49;33.70;26.90
9118;DHT22;4594;50.994;7.126;2023-07-22T12:30:15;33.50;26.90
9118;DHT22;4594;50.994;7.126;2023-07-22T12:32:41;33.20;26.80
9118;DHT22;4594;50.994;7.126;2023-07-22T12:35:08;33.00;26.70
9118;DHT22;4594;50.994;7.126;2023-07-22T12:37:34;32.80;26.60
9118;DHT22;4594;50.994;7.126;2023-07-22T12:40:00;32.50;26.60
9118;DHT22;4594;50.994;7.126;2023-07-22T12:42:26;32.30;26.60
9118;DHT22;4594;50.994;7.126;2023-07-22T12:44:52;32.00;26.60
9118;DHT22;4594;50.994;7.126;2023-07-22T12:47:18;31.90;26.70
9118;DHT22;4594;50.994;7.126;2023-07-22T12:49:44;31.60;26.70
9118;DHT22;4594;50.994;7.126;2023-07-22T12:52:09;31.50;26.70
9118;DHT22;4594;50.994;7.126;2023-07-22T12:54:36;31.40;26.70
9118;DHT22;4594;50.994;7.126;2023-07-22T12:57:02;31.30;26.70
9118;DHT22;4594;50.994;7.126;2023-07-22T12:59:28;31.20;26.80
9118;DHT22;4594;50.994;7.126;2023-07-22T13:01:53;31.10;26.80
9118;DHT22;4594;50.994;7.126;2023-07-22T13:04:19;31.10;26.80
9118;DHT22;4594;50.994;7.126;2023-07-22T13:06:45;31.00;26.70
9118;DHT22;4594;50.994;7.126;2023-07-22T13:09:11;30.90;26.70
9118;DHT22;4594;50.994;7.126;2023-07-22T13:11:37;30.80;26.70
9118;DHT22;4594;50.994;7.126;2023-07-22T13:14:03;30.70;26.70
9118;DHT22;4594;50.994;7.126;2023-07-22T13:16:28;30.70;26.70
9118;DHT22;4594;50.994;7.126;2023-07-22T13:18:54;30.60;26.60
9118;DHT22;4594;50.994;7.126;2023-07-22T13:21:20;30.50;26.60
9118;DHT22;4594;50.994;7.126;2023-07-22T13:23:46;30.50;26.60
9118;DHT22;4594;50.994;7.126;2023-07-22T13:26:11;30.40;26.60
9118;DHT22;4594;50.994;7.126;2023-07-22T13:28:37;30.30;26.60
9118;DHT22;4594;50.994;7.126;2023-07-22T13:31:03;30.20;26.50
9118;DHT22;4594;50.994;7.126;2023-07-22T13:33:28;30.10;26.40
9118;DHT22;4594;50.994;7.126;2023-07-22T13:35:54;30.00;26.40
9118;DHT22;4594;50.994;7.126;2023-07-22T13:38:20;30.00;26.40
9118;DHT22;4594;50.994;7.126;2023-07-22T13:40:46;29.90;26.40
9118;DHT22;4594;50.994;7.126;2023-07-22T13:43:12;29.80;26.40
9118;DHT22;4594;50.994;7.126;2023-07-22T13:45:37;29.70;26.50
9118;DHT22;4594;50.994;7.126;2023-07-22T13:48:03;29.70;26.50
9118;DHT22;4594;50.994;7.126;2023-07-22T13:50:30;29.60;26.50
9118;DHT22;4594;50.994;7.126;2023-07-22T13:52:56;29.60;26.50
9118;DHT22;4594;50.994;7.126;2023-07-22T13:55:21;29.50;26.40
9118;DHT22;4594;50.994;7.126;2023-07-22T13:57:47;29.50;26.40
9118;DHT22;4594;50.994;7.126;2023-07-22T14:00:13;29.40;26.40
9118;DHT22;4594;50.994;7.126;2023-07-22T14:02:40;29.40;26.50
9118;DHT22;4594;50.994;7.126;2023-07-22T14:05:06;29.30;26.50
9118;DHT22;4594;50.994;7.126;2023-07-22T14:07:33;29.30;26.50
9118;DHT22;4594;50.994;7.126;2023-07-22T14:10:00;29.20;26.50
9118;DHT22;4594;50.994;7.126;2023-07-22T14:12:26;29.10;26.50
9118;DHT22;4594;50.994;7.126;2023-07-22T14:14:51;29.10;26.50
9118;DHT22;4594;50.994;7.126;2023-07-22T14:17:17;29.10;26.50
9118;DHT22;4594;50.994;7.126;2023-07-22T14:19:43;29.00;26.40
9118;DHT22;4594;50.994;7.126;2023-07-22T14:22:08;28.90;26.50
9118;DHT22;4594;50.994;7.126;2023-07-22T14:24:34;28.80;26.50
9118;DHT22;4594;50.994;7.126;2023-07-22T14:27:00;28.80;26.60
9118;DHT22;4594;50.994;7.126;2023-07-22T14:29:25;28.80;26.60
9118;DHT22;4594;50.994;7.126;2023-07-22T14:31:51;28.70;26.50
9118;DHT22;4594;50.994;7.126;2023-07-22T14:34:17;28.70;26.50
9118;DHT22;4594;50.994;7.126;2023-07-22T14:36:43;28.70;26.60
9118;DHT22;4594;50.994;7.126;2023-07-22T14:39:09;28.60;26.50
9118;DHT22;4594;50.994;7.126;2023-07-22T14:41:35;28.60;26.50
9118;DHT22;4594;50.994;7.126;2023-07-22T14:44:01;28.50;26.50
9118;DHT22;4594;50.994;7.126;2023-07-22T14:46:26;28.50;26.40
9118;DHT22;4594;50.994;7.126;2023-07-22T14:48:52;28.40;26.50
9118;DHT22;4594;50.994;7.126;2023-07-22T14:51:18;28.40;26.50
9118;DHT22;4594;50.994;7.126;2023-07-22T14:53:43;28.40;26.60
9118;DHT22;4594;50.994;7.126;2023-07-22T14:56:09;28.40;26.60
9118;DHT22;4594;50.994;7.126;2023-07-22T14:58:35;28.30;26.60
9118;DHT22;4594;50.994;7.126;2023-07-22T15:01:01;28.30;26.60
9118;DHT22;4594;50.994;7.126;2023-07-22T15:03:26;28.30;26.60
9118;DHT22;4594;50.994;7.126;2023-07-22T15:05:52;28.30;26.60
9118;DHT22;4594;50.994;7.126;2023-07-22T15:08:18;28.30;26.60
9118;DHT22;4594;50.994;7.126;2023-07-22T15:10:43;28.30;26.60
9118;DHT22;4594;50.994;7.126;2023-07-22T15:13:09;28.20;26.50
9118;DHT22;4594;50.994;7.126;2023-07-22T15:15:35;28.20;26.60
9118;DHT22;4594;50.994;7.126;2023-07-22T15:18:01;28.20;26.60
9118;DHT22;4594;50.994;7.126;2023-07-22T15:20:26;28.10;26.70
9118;DHT22;4594;50.994;7.126;2023-07-22T15:22:52;28.10;26.70
9118;DHT22;4594;50.994;7.126;2023-07-22T15:25:18;28.10;26.70
9118;DHT22;4594;50.994;7.126;2023-07-22T15:27:44;28.10;26.70
9118;DHT22;4594;50.994;7.126;2023-07-22T15:30:10;28.00;26.70
9118;DHT22;4594;50.994;7.126;2023-07-22T15:32:36;28.00;26.70
9118;DHT22;4594;50.994;7.126;2023-07-22T15:35:02;28.00;26.70
9118;DHT22;4594;50.994;7.126;2023-07-22T15:37:27;28.00;26.70
9118;DHT22;4594;50.994;7.126;2023-07-22T15:39:53;27.90;26.70
9118;DHT22;4594;50.994;7.126;2023-07-22T15:42:19;27.90;26.80
9118;DHT22;4594;50.994;7.126;2023-07-22T15:44:44;27.90;26.80
9118;DHT22;4594;50.994;7.126;2023-07-22T15:47:10;27.80;26.70
9118;DHT22;4594;50.994;7.126;2023-07-22T15:49:36;27.80;26.80
9118;DHT22;4594;50.994;7.126;2023-07-22T15:52:02;27.80;26.80
9118;DHT22;4594;50.994;7.126;2023-07-22T15:54:27;27.80;26.80
9118;DHT22;4594;50.994;7.126;2023-07-22T15:56:53;27.80;26.80
9118;DHT22;4594;50.994;7.126;2023-07-22T15:59:19;27.80;26.80
9118;DHT22;4594;50.994;7.126;2023-07-22T16:01:45;27.80;26.80
9118;DHT22;4594;50.994;7.126;2023-07-22T16:04:11;27.80;26.90
9118;DHT22;4594;50.994;7.126;2023-07-22T16:06:36;27.80;26.90
9118;DHT22;4594;50.994;7.126;2023-07-22T16:09:02;27.70;26.80
9118;DHT22;4594;50.994;7.126;2023-07-22T16:11:28;27.70;26.90
9118;DHT22;4594;50.994;7.126;2023-07-22T16:13:53;27.70;26.90
9118;DHT22;4594;50.994;7.126;2023-07-22T16:16:20;27.70;27.00
9118;DHT22;4594;50.994;7.126;2023-07-22T16:18:46;27.70;27.00
9118;DHT22;4594;50.994;7.126;2023-07-22T16:21:12;27.70;27.10
9118;DHT22;4594;50.994;7.126;2023-07-22T16:23:38;27.70;27.10
9118;DHT22;4594;50.994;7.126;2023-07-22T16:26:03;27.70;27.20
9118;DHT22;4594;50.994;7.126;2023-07-22T16:28:29;27.70;27.20
9118;DHT22;4594;50.994;7.126;2023-07-22T16:30:55;27.60;27.20
9118;DHT22;4594;50.994;7.126;2023-07-22T16:33:21;27.60;27.20